createdAt,value
2018-09-09T00:00:15.453Z,11.10
2018-09-09T00:02:43.113Z,12.83
2018-09-09T00:05:10.782Z,11.87
2018-09-09T00:07:38.432Z,12.53
2018-09-09T00:10:06.509Z,12.50
2018-09-09T00:12:34.153Z,12.47
2018-09-09T00:15:01.823Z,13.90
2018-09-09T00:17:29.457Z,13.67
2018-09-09T00:19:57.225Z,12.97
2018-09-09T00:22:24.890Z,14.13
2018-09-09T00:24:52.605Z,14.47
2018-09-09T00:27:20.366Z,14.63
2018-09-09T00:29:48.026Z,15.20
2018-09-09T00:32:15.692Z,15.60
2018-09-09T00:34:43.465Z,15.27
2018-09-09T00:37:11.118Z,16.67
2018-09-09T00:39:38.800Z,16.30
2018-09-09T00:42:06.602Z,15.53
2018-09-09T00:44:34.280Z,17.43
2018-09-09T00:47:01.944Z,15.80
2018-09-09T00:49:35.341Z,16.40
2018-09-09T00:52:08.479Z,15.97
2018-09-09T00:54:36.244Z,15.37
2018-09-09T00:57:03.941Z,16.20
2018-09-09T00:59:31.612Z,16.80
2018-09-09T01:01:59.377Z,15.83
2018-09-09T01:04:27.022Z,16.43
2018-09-09T01:06:54.658Z,15.47
2018-09-09T01:09:26.909Z,16.77
2018-09-09T01:11:54.562Z,17.93
2018-09-09T01:14:22.207Z,17.43
2018-09-09T01:16:49.975Z,18.63
2018-09-09T01:19:17.647Z,19.33
2018-09-09T01:21:45.323Z,18.73
2018-09-09T01:24:13.079Z,18.70
2018-09-09T01:26:40.750Z,20.40
2018-09-09T01:29:08.417Z,21.33
2018-09-09T01:31:36.169Z,21.27
2018-09-09T01:34:03.857Z,21.00
2018-09-09T01:36:31.529Z,22.63
2018-09-09T01:38:59.289Z,21.77
2018-09-09T01:41:26.957Z,22.27
2018-09-09T01:43:54.626Z,22.73
2018-09-09T01:46:22.402Z,23.33
2018-09-09T01:48:50.055Z,23.53
2018-09-09T01:51:17.728Z,22.87
2018-09-09T01:53:45.395Z,23.57
2018-09-09T01:56:13.093Z,23.23
2018-09-09T01:58:40.792Z,24.73
2018-09-09T02:01:08.458Z,23.87
2018-09-09T02:03:36.217Z,24.63
2018-09-09T02:06:03.909Z,24.97
2018-09-09T02:08:31.562Z,23.30
2018-09-09T02:11:00.428Z,22.27
2018-09-09T02:13:29.540Z,22.03
2018-09-09T02:15:57.206Z,24.13
2018-09-09T02:18:24.885Z,20.60
2018-09-09T02:20:52.569Z,21.50
2018-09-09T02:23:20.242Z,22.37
2018-09-09T02:25:48.024Z,21.50
2018-09-09T02:28:15.622Z,21.23
2018-09-09T02:30:43.277Z,18.20
2018-09-09T02:33:11.473Z,15.83
2018-09-09T02:35:39.120Z,17.73
2018-09-09T02:38:06.770Z,16.73
2018-09-09T02:40:34.496Z,16.27
2018-09-09T02:43:02.309Z,17.60
2018-09-09T02:45:29.976Z,17.23
2018-09-09T02:47:57.644Z,16.77
2018-09-09T02:50:25.306Z,17.40
2018-09-09T02:52:52.968Z,18.00
2018-09-09T02:55:20.629Z,17.47
2018-09-09T02:57:48.311Z,17.03
2018-09-09T03:00:15.969Z,16.40
2018-09-09T03:02:43.769Z,16.77
2018-09-09T03:05:11.432Z,18.03
2018-09-09T03:07:39.079Z,17.93
2018-09-09T03:10:06.771Z,17.17
2018-09-09T03:12:34.425Z,20.37
2018-09-09T03:15:02.112Z,17.33
2018-09-09T03:17:29.781Z,17.00
2018-09-09T03:19:57.513Z,18.30
2018-09-09T03:22:25.172Z,17.50
2018-09-09T03:24:52.833Z,18.40
2018-09-09T03:27:20.552Z,18.77
2018-09-09T03:29:48.197Z,21.50
2018-09-09T03:32:15.848Z,19.93
2018-09-09T03:34:43.507Z,21.20
2018-09-09T03:37:11.165Z,20.07
2018-09-09T03:39:38.848Z,20.73
2018-09-09T03:42:06.639Z,20.47
2018-09-09T03:44:34.293Z,20.67
2018-09-09T03:47:02.214Z,21.20
2018-09-09T03:49:29.873Z,20.83
2018-09-09T03:51:57.541Z,21.07
2018-09-09T03:54:25.211Z,18.90
2018-09-09T03:56:52.870Z,18.80
2018-09-09T03:59:20.515Z,22.27
2018-09-09T04:01:48.168Z,21.27
2018-09-09T04:04:15.824Z,17.57
2018-09-09T04:06:43.485Z,17.60
2018-09-09T04:09:11.125Z,15.97
2018-09-09T04:11:38.778Z,16.83
2018-09-09T04:14:06.537Z,16.13
2018-09-09T04:16:34.197Z,17.50
2018-09-09T04:19:01.869Z,16.90
2018-09-09T04:21:29.535Z,16.00
2018-09-09T04:23:57.198Z,15.80
2018-09-09T04:26:24.870Z,16.00
2018-09-09T04:28:52.502Z,15.07
2018-09-09T04:31:20.172Z,15.60
2018-09-09T04:33:47.869Z,17.43
2018-09-09T04:36:15.536Z,16.83
2018-09-09T04:38:43.186Z,15.50
2018-09-09T04:41:10.839Z,18.33
2018-09-09T04:43:38.487Z,18.63
2018-09-09T04:46:06.164Z,18.77
2018-09-09T04:48:33.821Z,20.90
2018-09-09T04:51:01.478Z,17.20
2018-09-09T04:53:29.156Z,18.30
2018-09-09T04:55:56.818Z,21.17
2018-09-09T04:58:24.509Z,19.30
2018-09-09T05:00:52.323Z,18.80
2018-09-09T05:03:20.010Z,19.67
2018-09-09T05:05:47.655Z,22.30
2018-09-09T05:08:15.301Z,21.53
2018-09-09T05:10:42.976Z,22.17
2018-09-09T05:13:10.625Z,26.20
2018-09-09T05:15:38.323Z,24.73
2018-09-09T05:18:05.974Z,23.27
2018-09-09T05:20:33.631Z,23.80
2018-09-09T05:23:01.293Z,23.47
2018-09-09T05:25:28.971Z,22.93
2018-09-09T05:27:56.698Z,23.27
2018-09-09T05:30:24.370Z,24.10
2018-09-09T05:32:52.028Z,26.57
2018-09-09T05:35:19.705Z,23.97
2018-09-09T05:37:47.378Z,24.30
2018-09-09T05:40:15.062Z,23.70
2018-09-09T05:42:42.722Z,21.07
2018-09-09T05:45:10.383Z,21.53
2018-09-09T05:47:38.037Z,20.13
2018-09-09T05:50:05.742Z,20.17
2018-09-09T05:52:33.392Z,19.73
2018-09-09T05:55:01.028Z,20.60
2018-09-09T05:57:28.745Z,19.23
2018-09-09T05:59:56.425Z,20.17
2018-09-09T06:02:24.115Z,19.70
2018-09-09T06:04:51.784Z,19.27
2018-09-09T06:07:19.461Z,19.27
2018-09-09T06:09:47.151Z,20.20
2018-09-09T06:12:14.798Z,19.87
2018-09-09T06:14:42.467Z,17.60
2018-09-09T06:17:10.126Z,18.63
2018-09-09T06:19:37.787Z,18.23
2018-09-09T06:22:05.790Z,17.77
2018-09-09T06:24:33.508Z,16.47
2018-09-09T06:27:01.154Z,17.50
2018-09-09T06:29:28.799Z,14.63
2018-09-09T06:31:56.473Z,14.30
2018-09-09T06:34:24.153Z,16.03
2018-09-09T06:36:51.804Z,13.90
2018-09-09T06:39:19.467Z,11.67
2018-09-09T06:41:47.140Z,10.03
2018-09-09T06:44:14.833Z,10.10
2018-09-09T06:46:42.488Z,9.80
2018-09-09T06:49:10.154Z,11.47
2018-09-09T06:51:37.818Z,10.87
2018-09-09T06:54:05.630Z,11.37
2018-09-09T06:56:33.413Z,10.53
2018-09-09T06:59:01.075Z,9.67
2018-09-09T07:01:28.950Z,9.43
2018-09-09T07:03:56.614Z,9.77
2018-09-09T07:06:24.265Z,10.00
2018-09-09T07:08:51.917Z,9.60
2018-09-09T07:11:19.616Z,10.00
2018-09-09T07:13:47.287Z,10.27
2018-09-09T07:16:14.937Z,9.40
2018-09-09T07:18:42.617Z,9.80
2018-09-09T07:21:10.281Z,9.50
2018-09-09T07:23:37.958Z,9.50
2018-09-09T07:26:06.056Z,9.03
2018-09-09T07:28:33.799Z,8.83
2018-09-09T07:31:01.496Z,7.90
2018-09-09T07:33:29.128Z,7.67
2018-09-09T07:35:56.779Z,7.53
2018-09-09T07:38:24.447Z,7.10
2018-09-09T07:40:52.112Z,6.53
2018-09-09T07:43:19.795Z,5.93
2018-09-09T07:45:47.460Z,6.50
2018-09-09T07:48:15.132Z,5.87
2018-09-09T07:50:42.798Z,5.73
2018-09-09T07:55:51.769Z,5.00
2018-09-09T07:58:19.458Z,5.70
2018-09-09T08:00:47.110Z,5.13
2018-09-09T08:03:14.816Z,5.23
2018-09-09T08:05:42.476Z,4.20
2018-09-09T08:08:10.130Z,4.27
2018-09-09T08:10:37.782Z,4.37
2018-09-09T08:13:05.767Z,4.73
2018-09-09T08:15:33.413Z,4.40
2018-09-09T08:18:01.072Z,4.87
2018-09-09T08:20:28.728Z,3.97
2018-09-09T08:22:56.377Z,3.93
2018-09-09T08:25:24.076Z,4.20
2018-09-09T08:27:51.747Z,4.60
2018-09-09T08:30:19.419Z,4.33
2018-09-09T08:32:47.102Z,3.53
2018-09-09T08:35:14.759Z,4.60
2018-09-09T08:37:42.404Z,3.97
2018-09-09T08:40:10.086Z,4.47
2018-09-09T08:42:37.746Z,3.40
2018-09-09T08:45:05.670Z,5.03
2018-09-09T08:47:33.360Z,5.07
2018-09-09T08:50:01.019Z,4.80
2018-09-09T08:52:28.669Z,4.50
2018-09-09T08:54:56.325Z,5.03
2018-09-09T08:57:23.996Z,3.60
2018-09-09T08:59:51.635Z,3.73
2018-09-09T09:02:19.290Z,4.10
2018-09-09T09:04:46.914Z,3.07
2018-09-09T09:07:14.633Z,2.63
2018-09-09T09:09:42.350Z,2.30
2018-09-09T09:12:10.581Z,2.37
2018-09-09T09:14:39.027Z,2.27
2018-09-09T09:17:06.825Z,2.20
2018-09-09T09:19:34.581Z,2.23
2018-09-09T09:22:02.236Z,3.13
2018-09-09T09:24:29.941Z,3.33
2018-09-09T09:26:57.589Z,2.83
2018-09-09T09:29:28.341Z,3.23
2018-09-09T09:31:55.994Z,2.30
2018-09-09T09:34:23.645Z,2.33
2018-09-09T09:36:51.301Z,3.20
2018-09-09T09:39:18.977Z,2.57
2018-09-09T09:41:46.622Z,2.60
2018-09-09T09:44:14.286Z,2.10
2018-09-09T09:46:41.940Z,2.53
2018-09-09T09:49:09.608Z,2.30
2018-09-09T09:51:37.270Z,2.00
2018-09-09T09:54:05.077Z,2.40
2018-09-09T09:56:32.719Z,2.13
2018-09-09T09:59:00.441Z,2.20
2018-09-09T10:01:28.119Z,2.70
2018-09-09T10:03:56.486Z,2.90
2018-09-09T10:06:24.149Z,2.80
2018-09-09T10:08:51.843Z,3.00
2018-09-09T10:11:19.539Z,5.20
2018-09-09T10:13:47.224Z,4.70
2018-09-09T10:16:14.857Z,3.27
2018-09-09T10:18:42.576Z,2.90
2018-09-09T10:21:10.379Z,3.00
2018-09-09T10:23:38.139Z,2.90
2018-09-09T10:26:05.908Z,3.27
2018-09-09T10:28:33.633Z,2.63
2018-09-09T10:31:01.324Z,2.83
2018-09-09T10:33:29.082Z,2.67
2018-09-09T10:35:56.793Z,2.90
2018-09-09T10:38:24.466Z,2.50
2018-09-09T10:40:52.200Z,2.90
2018-09-09T10:43:19.930Z,2.63
2018-09-09T10:45:47.588Z,2.20
2018-09-09T10:48:15.285Z,2.60
2018-09-09T10:50:42.949Z,2.97
2018-09-09T10:53:10.639Z,3.20
2018-09-09T10:55:38.289Z,2.40
2018-09-09T10:58:05.936Z,2.33
2018-09-09T11:00:34.155Z,2.60
2018-09-09T11:03:01.822Z,2.37
2018-09-09T11:05:29.466Z,2.27
2018-09-09T11:07:57.155Z,2.40
2018-09-09T11:10:24.820Z,2.00
2018-09-09T11:12:52.481Z,2.10
2018-09-09T11:15:20.193Z,1.80
2018-09-09T11:17:47.854Z,1.87
2018-09-09T11:20:15.505Z,1.90
2018-09-09T11:22:43.146Z,1.97
2018-09-09T11:25:10.788Z,2.20
2018-09-09T11:27:38.444Z,2.20
2018-09-09T11:30:06.270Z,1.90
2018-09-09T11:32:33.919Z,1.87
2018-09-09T11:35:01.618Z,2.20
2018-09-09T11:37:29.262Z,2.40
2018-09-09T11:39:56.930Z,1.90
2018-09-09T11:42:24.621Z,2.20
2018-09-09T11:44:52.274Z,2.37
2018-09-09T11:47:19.959Z,3.33
2018-09-09T11:49:47.597Z,3.33
2018-09-09T11:52:15.263Z,4.43
2018-09-09T11:54:42.916Z,4.70
2018-09-09T11:57:10.660Z,5.17
2018-09-09T11:59:38.367Z,4.43
2018-09-09T12:02:06.135Z,5.10
2018-09-09T12:04:33.970Z,2.73
2018-09-09T12:07:01.618Z,2.37
2018-09-09T12:09:29.252Z,2.40
2018-09-09T12:11:56.933Z,4.30
2018-09-09T12:14:24.584Z,3.70
2018-09-09T12:16:52.217Z,3.33
2018-09-09T12:19:19.885Z,3.43
2018-09-09T12:21:47.538Z,3.37
2018-09-09T12:24:15.334Z,3.33
2018-09-09T12:26:43.012Z,3.93
2018-09-09T12:29:10.656Z,3.20
2018-09-09T12:31:38.310Z,3.00
2018-09-09T12:34:06.009Z,3.07
2018-09-09T12:36:33.652Z,2.77
2018-09-09T12:39:01.336Z,3.73
2018-09-09T12:41:29.002Z,4.10
2018-09-09T12:44:02.304Z,2.60
2018-09-09T12:46:35.493Z,2.23
2018-09-09T12:49:05.619Z,2.03
2018-09-09T12:51:33.285Z,1.60
2018-09-09T12:54:00.940Z,2.10
2018-09-09T12:56:28.600Z,1.47
2018-09-09T12:58:56.799Z,1.80
2018-09-09T13:01:24.469Z,1.70
2018-09-09T13:03:52.149Z,1.70
2018-09-09T13:06:19.968Z,1.50
2018-09-09T13:08:47.714Z,1.50
2018-09-09T13:11:15.538Z,1.77
2018-09-09T13:13:43.261Z,1.40
2018-09-09T13:16:12.055Z,1.43
2018-09-09T13:18:39.728Z,1.83
2018-09-09T13:21:07.429Z,1.70
2018-09-09T13:23:35.135Z,1.50
2018-09-09T13:26:02.851Z,1.90
2018-09-09T13:28:30.584Z,1.83
2018-09-09T13:30:58.344Z,1.80
2018-09-09T13:33:26.097Z,2.07
2018-09-09T13:35:54.136Z,1.97
2018-09-09T13:38:21.939Z,1.80
2018-09-09T13:40:49.660Z,1.83
2018-09-09T13:43:17.455Z,1.90
2018-09-09T13:45:45.167Z,2.10
2018-09-09T13:48:13.020Z,2.10
2018-09-09T13:50:40.710Z,2.43
2018-09-09T13:53:08.449Z,2.30
2018-09-09T13:55:36.149Z,2.23
2018-09-09T13:58:03.910Z,2.30
2018-09-09T14:00:31.597Z,2.10
2018-09-09T14:02:59.247Z,2.47
2018-09-09T14:05:26.930Z,2.43
2018-09-09T14:07:54.667Z,3.03
2018-09-09T14:10:22.355Z,2.43
2018-09-09T14:12:50.019Z,3.03
2018-09-09T14:15:17.740Z,3.27
2018-09-09T14:17:45.428Z,3.27
2018-09-09T14:20:13.089Z,3.40
2018-09-09T14:22:40.766Z,3.20
2018-09-09T14:25:08.549Z,3.07
2018-09-09T14:27:36.194Z,3.00
2018-09-09T14:30:04.081Z,3.53
2018-09-09T14:32:31.784Z,3.67
2018-09-09T14:34:59.452Z,3.03
2018-09-09T14:37:27.116Z,3.37
2018-09-09T14:39:55.048Z,3.33
2018-09-09T14:42:22.737Z,3.67
2018-09-09T14:44:50.406Z,3.80
2018-09-09T14:47:18.066Z,3.70
2018-09-09T14:49:46.158Z,3.97
2018-09-09T14:52:13.823Z,3.60
2018-09-09T14:54:41.510Z,2.70
2018-09-09T14:57:09.217Z,2.90
2018-09-09T14:59:36.952Z,2.60
2018-09-09T15:02:04.716Z,2.87
2018-09-09T15:04:32.424Z,2.50
2018-09-09T15:07:00.183Z,2.50
2018-09-09T15:09:27.906Z,2.50
2018-09-09T15:11:55.649Z,3.03
2018-09-09T15:14:23.372Z,2.83
2018-09-09T15:16:51.114Z,2.70
2018-09-09T15:19:18.807Z,2.53
2018-09-09T15:21:46.525Z,2.47
2018-09-09T15:24:14.217Z,2.63
2018-09-09T15:26:43.053Z,2.43
2018-09-09T15:29:10.727Z,2.50
2018-09-09T15:31:38.453Z,1.73
2018-09-09T15:34:06.133Z,2.00
2018-09-09T15:36:33.836Z,2.13
2018-09-09T15:39:01.591Z,2.50
2018-09-09T15:41:29.490Z,2.20
2018-09-09T15:43:57.184Z,2.23
2018-09-09T15:46:24.841Z,2.00
2018-09-09T15:48:52.517Z,2.20
2018-09-09T15:51:20.192Z,2.73
2018-09-09T15:53:47.853Z,2.27
2018-09-09T15:56:15.522Z,2.23
2018-09-09T15:58:43.181Z,2.23
2018-09-09T16:01:10.856Z,2.07
2018-09-09T16:03:38.866Z,2.57
2018-09-09T16:06:06.591Z,2.07
2018-09-09T16:08:34.255Z,1.87
2018-09-09T16:11:02.320Z,2.07
2018-09-09T16:13:29.998Z,2.37
2018-09-09T16:15:57.673Z,1.90
2018-09-09T16:18:25.645Z,2.00
2018-09-09T16:20:53.345Z,1.77
2018-09-09T16:23:21.106Z,1.57
2018-09-09T16:25:49.062Z,1.70
2018-09-09T16:28:16.731Z,1.90
2018-09-09T16:30:44.448Z,1.60
2018-09-09T16:33:12.393Z,1.60
2018-09-09T16:35:40.074Z,1.60
2018-09-09T16:38:07.746Z,1.73
2018-09-09T16:40:35.421Z,1.80
2018-09-09T16:43:03.102Z,1.90
2018-09-09T16:45:30.794Z,1.70
2018-09-09T16:47:58.465Z,2.00
2018-09-09T16:50:26.523Z,2.00
2018-09-09T16:52:54.237Z,2.00
2018-09-09T16:55:21.925Z,1.67
2018-09-09T16:57:49.572Z,2.07
2018-09-09T17:00:17.256Z,2.07
2018-09-09T17:02:45.246Z,2.10
2018-09-09T17:05:12.918Z,1.60
2018-09-09T17:07:40.612Z,2.10
2018-09-09T17:10:08.339Z,1.70
2018-09-09T17:12:36.072Z,1.90
2018-09-09T17:15:03.881Z,2.40
2018-09-09T17:17:31.564Z,1.90
2018-09-09T17:19:59.363Z,1.90
2018-09-09T17:22:27.023Z,1.70
2018-09-09T17:24:54.702Z,1.80
2018-09-09T17:27:22.345Z,1.90
2018-09-09T17:29:50.352Z,2.40
2018-09-09T17:32:18.047Z,2.23
2018-09-09T17:34:45.740Z,2.10
2018-09-09T17:37:13.444Z,1.97
2018-09-09T17:39:41.134Z,2.40
2018-09-09T17:42:09.128Z,2.13
2018-09-09T17:44:36.812Z,2.20
2018-09-09T17:47:04.558Z,2.10
2018-09-09T17:49:32.229Z,2.30
2018-09-09T17:51:59.944Z,2.30
2018-09-09T17:54:27.994Z,2.43
2018-09-09T17:56:55.665Z,2.27
2018-09-09T17:59:23.419Z,2.47
2018-09-09T18:01:51.097Z,2.43
2018-09-09T18:04:18.786Z,2.90
2018-09-09T18:06:46.838Z,2.23
2018-09-09T18:09:14.542Z,2.53
2018-09-09T18:11:42.234Z,2.40
2018-09-09T18:14:09.941Z,2.33
2018-09-09T18:16:37.827Z,2.40
2018-09-09T18:19:05.501Z,2.27
2018-09-09T18:21:33.171Z,2.80
2018-09-09T18:24:01.153Z,2.20
2018-09-09T18:26:28.862Z,2.73
2018-09-09T18:28:56.544Z,2.57
2018-09-09T18:31:24.522Z,2.70
2018-09-09T18:33:52.256Z,2.50
2018-09-09T18:36:20.121Z,2.50
2018-09-09T18:38:48.113Z,2.87
2018-09-09T18:41:15.782Z,2.43
2018-09-09T18:43:43.474Z,2.17
2018-09-09T18:46:11.191Z,2.60
2018-09-09T18:48:39.250Z,2.23
2018-09-09T18:51:06.921Z,2.30
2018-09-09T18:53:34.633Z,2.30
2018-09-09T18:56:02.638Z,2.67
2018-09-09T18:58:30.279Z,2.30
2018-09-09T19:00:57.937Z,2.17
2018-09-09T19:03:25.607Z,2.23
2018-09-09T19:05:53.263Z,2.80
2018-09-09T19:08:20.947Z,2.63
2018-09-09T19:10:48.636Z,2.47
2018-09-09T19:13:16.326Z,2.70
2018-09-09T19:15:44.033Z,2.37
2018-09-09T19:18:11.701Z,2.20
2018-09-09T19:20:39.453Z,3.07
2018-09-09T19:23:07.421Z,2.40
2018-09-09T19:25:35.619Z,2.57
2018-09-09T19:28:03.312Z,2.57
2018-09-09T19:30:31.003Z,2.50
2018-09-09T19:32:58.697Z,2.87
2018-09-09T19:35:26.694Z,2.20
2018-09-09T19:37:54.388Z,2.93
2018-09-09T19:40:22.058Z,2.50
2018-09-09T19:42:49.730Z,2.47
2018-09-09T19:45:17.404Z,2.70
2018-09-09T19:47:45.074Z,2.27
2018-09-09T19:50:12.771Z,2.80
2018-09-09T19:52:40.445Z,2.70
2018-09-09T19:55:08.160Z,2.50
2018-09-09T19:57:35.867Z,2.73
2018-09-09T20:00:03.674Z,2.30
2018-09-09T20:02:31.351Z,2.90
2018-09-09T20:04:59.022Z,2.43
2018-09-09T20:07:27.040Z,2.50
2018-09-09T20:09:54.710Z,2.57
2018-09-09T20:12:22.379Z,2.50
2018-09-09T20:14:50.101Z,2.13
2018-09-09T20:17:17.818Z,2.30
2018-09-09T20:19:45.794Z,2.00
2018-09-09T20:22:13.466Z,1.97
2018-09-09T20:24:41.269Z,2.33
2018-09-09T20:27:08.944Z,2.40
2018-09-09T20:29:37.295Z,2.03
2018-09-09T20:32:05.309Z,2.13
2018-09-09T20:34:33.070Z,2.33
2018-09-09T20:37:00.741Z,2.37
2018-09-09T20:39:28.708Z,2.33
2018-09-09T20:41:56.409Z,2.20
2018-09-09T20:44:24.046Z,2.20
2018-09-09T20:46:52.028Z,2.33
2018-09-09T20:49:19.690Z,2.67
2018-09-09T20:51:48.471Z,2.10
2018-09-09T20:54:16.146Z,2.20
2018-09-09T20:56:43.797Z,2.30
2018-09-09T20:59:11.469Z,2.30
2018-09-09T21:01:39.176Z,2.40
2018-09-09T21:04:07.250Z,2.30
2018-09-09T21:06:34.901Z,1.83
2018-09-09T21:09:02.708Z,2.10
2018-09-09T21:11:31.181Z,2.10
2018-09-09T21:13:58.855Z,2.50
2018-09-09T21:16:26.581Z,2.30
2018-09-09T21:18:54.271Z,2.20
2018-09-09T21:21:22.349Z,2.07
2018-09-09T21:23:50.032Z,2.60
2018-09-09T21:26:17.717Z,2.20
2018-09-09T21:28:45.426Z,2.43
2018-09-09T21:31:13.106Z,2.10
2018-09-09T21:33:40.767Z,2.27
2018-09-09T21:36:08.497Z,2.43
2018-09-09T21:38:36.180Z,2.70
2018-09-09T21:41:03.916Z,2.63
2018-09-09T21:43:31.974Z,2.53
2018-09-09T21:45:59.675Z,3.03
2018-09-09T21:48:27.377Z,2.67
2018-09-09T21:50:55.165Z,2.73
2018-09-09T21:53:23.383Z,2.70
2018-09-09T21:55:51.345Z,2.50
2018-09-09T21:58:19.041Z,3.17
2018-09-09T22:01:53.686Z,3.27
2018-09-09T22:04:21.354Z,3.27
2018-09-09T22:06:49.028Z,2.97
2018-09-09T22:09:16.713Z,3.00
2018-09-09T22:11:44.373Z,3.07
2018-09-09T22:14:12.045Z,2.87
2018-09-09T22:16:39.703Z,2.57
2018-09-09T22:19:07.497Z,2.90
2018-09-09T22:21:35.141Z,2.93
2018-09-09T22:24:02.832Z,3.07
2018-09-09T22:26:30.560Z,3.13
2018-09-09T22:28:58.529Z,3.10
2018-09-09T22:31:26.233Z,2.87
2018-09-09T22:33:53.934Z,3.47
2018-09-09T22:36:21.661Z,3.20
2018-09-09T22:38:49.330Z,2.93
2018-09-09T22:41:17.083Z,3.40
2018-09-09T22:43:44.742Z,2.93
2018-09-09T22:46:12.726Z,3.37
2018-09-09T22:48:40.409Z,3.00
2018-09-09T22:51:08.065Z,2.90
2018-09-09T22:53:35.733Z,2.80
2018-09-09T22:56:03.681Z,2.93
2018-09-09T22:58:31.374Z,3.07
2018-09-09T23:00:59.038Z,3.60
2018-09-09T23:03:27.009Z,3.00
2018-09-09T23:05:54.670Z,4.07
2018-09-09T23:08:22.382Z,3.17
2018-09-09T23:10:50.401Z,3.13
2018-09-09T23:13:18.079Z,3.13
2018-09-09T23:15:45.839Z,3.47
2018-09-09T23:18:13.525Z,3.60
2018-09-09T23:20:41.255Z,3.63
2018-09-09T23:23:08.943Z,4.00
2018-09-09T23:25:37.013Z,3.60
2018-09-09T23:28:04.814Z,3.60
2018-09-09T23:30:32.472Z,3.80
2018-09-09T23:33:00.137Z,4.30
2018-09-09T23:35:28.189Z,3.33
2018-09-09T23:37:55.885Z,3.90
2018-09-09T23:40:23.560Z,3.50
2018-09-09T23:42:51.214Z,4.07
2018-09-09T23:45:18.878Z,4.00
2018-09-09T23:47:57.085Z,3.80
2018-09-09T23:50:24.763Z,3.80
2018-09-09T23:52:52.420Z,3.20
2018-09-09T23:55:20.091Z,3.67
2018-09-09T23:57:48.149Z,3.87
